createdAt,value
2016-10-07T00:00:08.136Z,95.02
2016-10-07T00:01:07.722Z,95.20
2016-10-07T00:02:08.306Z,95.75
2016-10-07T00:03:08.001Z,96.10
2016-10-07T00:04:07.591Z,95.88
2016-10-07T00:05:08.230Z,95.82
2016-10-07T00:06:07.907Z,95.64
2016-10-07T00:07:07.511Z,95.08
2016-10-07T00:08:08.227Z,94.94
2016-10-07T00:09:07.825Z,95.16
2016-10-07T00:10:07.477Z,94.97
2016-10-07T00:11:08.127Z,95.15
2016-10-07T00:12:07.754Z,95.26
2016-10-07T00:13:07.403Z,95.78
2016-10-07T00:14:08.075Z,95.80
2016-10-07T00:15:07.747Z,96.00
2016-10-07T00:16:07.430Z,95.75
2016-10-07T00:17:08.138Z,95.52
2016-10-07T00:18:07.881Z,95.13
2016-10-07T00:19:07.465Z,95.05
2016-10-07T00:20:08.175Z,95.08
2016-10-07T00:21:07.799Z,95.07
2016-10-07T00:22:07.446Z,95.43
2016-10-07T00:23:08.090Z,94.92
2016-10-07T00:24:07.685Z,94.83
2016-10-07T00:25:08.326Z,95.13
2016-10-07T00:26:08.016Z,95.47
2016-10-07T00:27:07.643Z,95.44
2016-10-07T00:28:13.839Z,95.65
2016-10-07T00:29:07.965Z,95.38
2016-10-07T00:30:07.570Z,95.00
2016-10-07T00:31:08.304Z,94.85
2016-10-07T00:32:07.891Z,94.97
2016-10-07T00:33:07.600Z,95.16
2016-10-07T00:34:08.194Z,95.24
2016-10-07T00:35:07.875Z,94.74
2016-10-07T00:36:07.520Z,94.70
2016-10-07T00:37:08.187Z,94.64
2016-10-07T00:38:07.895Z,95.03
2016-10-07T00:39:07.465Z,95.06
2016-10-07T00:40:08.136Z,94.92
2016-10-07T00:41:07.764Z,94.81
2016-10-07T00:42:07.356Z,95.16
2016-10-07T00:43:08.068Z,95.21
2016-10-07T00:44:07.643Z,95.56
2016-10-07T00:45:08.326Z,95.91
2016-10-07T00:46:08.003Z,95.79
2016-10-07T00:47:07.584Z,95.67
2016-10-07T00:48:08.274Z,95.67
2016-10-07T00:49:07.893Z,95.48
2016-10-07T00:50:07.516Z,95.30
2016-10-07T00:51:08.200Z,95.45
2016-10-07T00:52:07.824Z,95.66
2016-10-07T00:53:07.531Z,95.83
2016-10-07T00:54:08.209Z,95.46
2016-10-07T00:55:07.760Z,95.29
2016-10-07T00:56:07.429Z,95.78
2016-10-07T00:57:08.012Z,96.57
2016-10-07T00:58:07.628Z,97.06
2016-10-07T00:59:08.393Z,97.50
2016-10-07T01:00:07.920Z,97.55
2016-10-07T01:01:07.606Z,97.19
2016-10-07T01:02:08.293Z,97.14
2016-10-07T01:03:07.900Z,96.92
2016-10-07T01:04:07.524Z,96.67
2016-10-07T01:05:08.175Z,96.47
2016-10-07T01:06:07.812Z,96.22
2016-10-07T01:07:07.497Z,96.27
2016-10-07T01:08:08.175Z,95.65
2016-10-07T01:09:07.753Z,95.52
2016-10-07T01:10:07.377Z,96.03
2016-10-07T01:11:08.022Z,96.32
2016-10-07T01:12:07.689Z,96.38
2016-10-07T01:13:08.346Z,96.12
2016-10-07T01:14:07.945Z,96.01
2016-10-07T01:15:07.617Z,95.45
2016-10-07T01:16:08.364Z,95.11
2016-10-07T01:17:08.042Z,94.91
2016-10-07T01:18:07.984Z,94.93
2016-10-07T01:19:07.391Z,94.79
2016-10-07T01:20:08.055Z,95.10
2016-10-07T01:21:07.672Z,94.48
2016-10-07T01:22:07.420Z,94.51
2016-10-07T01:23:08.087Z,94.90
2016-10-07T01:24:07.686Z,94.99
2016-10-07T01:25:08.322Z,95.29
2016-10-07T01:26:08.003Z,95.64
2016-10-07T01:27:07.664Z,95.78
2016-10-07T01:28:08.324Z,95.56
2016-10-07T01:29:07.955Z,95.50
2016-10-07T01:30:07.623Z,95.68
2016-10-07T01:31:08.291Z,95.22
2016-10-07T01:32:07.882Z,95.34
2016-10-07T01:33:07.604Z,95.61
2016-10-07T01:34:08.170Z,96.02
2016-10-07T01:35:07.900Z,95.61
2016-10-07T01:36:07.451Z,95.41
2016-10-07T01:37:08.104Z,95.49
2016-10-07T01:38:07.776Z,95.65
2016-10-07T01:39:07.382Z,95.41
2016-10-07T01:40:08.016Z,95.71
2016-10-07T01:41:07.705Z,95.86
2016-10-07T01:42:08.328Z,95.84
2016-10-07T01:43:08.005Z,95.91
2016-10-07T01:44:07.603Z,96.04
2016-10-07T01:45:08.214Z,96.20
2016-10-07T01:46:07.960Z,96.06
2016-10-07T01:47:07.547Z,96.22
2016-10-07T01:48:08.224Z,96.69
2016-10-07T01:49:07.860Z,97.06
2016-10-07T01:50:07.478Z,97.04
2016-10-07T01:51:08.097Z,97.14
2016-10-07T01:52:07.871Z,97.07
2016-10-07T01:53:07.451Z,97.21
2016-10-07T01:54:08.066Z,97.26
2016-10-07T01:55:07.718Z,96.89
2016-10-07T01:56:08.360Z,97.02
2016-10-07T01:57:07.995Z,96.71
2016-10-07T01:58:07.647Z,96.78
2016-10-07T01:59:08.249Z,96.54
2016-10-07T02:00:07.938Z,96.55
2016-10-07T02:01:07.596Z,96.77
2016-10-07T02:02:08.227Z,96.34
2016-10-07T02:03:07.971Z,96.06
2016-10-07T02:04:07.587Z,96.84
2016-10-07T02:05:08.211Z,96.60
2016-10-07T02:06:07.810Z,96.67
2016-10-07T02:07:07.474Z,96.38
2016-10-07T02:08:08.191Z,96.22
2016-10-07T02:09:07.792Z,96.17
2016-10-07T02:10:07.443Z,96.32
2016-10-07T02:11:08.121Z,96.92
2016-10-07T02:12:07.802Z,97.55
2016-10-07T02:13:07.448Z,97.59
2016-10-07T02:14:08.087Z,97.50
2016-10-07T02:15:07.719Z,97.36
2016-10-07T02:16:08.403Z,97.27
2016-10-07T02:17:08.088Z,97.17
2016-10-07T02:18:08.100Z,97.63
2016-10-07T02:19:07.478Z,98.07
2016-10-07T02:20:08.041Z,97.74
2016-10-07T02:21:07.669Z,97.10
2016-10-07T02:22:08.373Z,97.21
2016-10-07T02:23:08.045Z,97.52
2016-10-07T02:24:07.678Z,97.65
2016-10-07T02:25:08.313Z,97.35
2016-10-07T02:26:07.917Z,97.51
2016-10-07T02:27:07.609Z,97.40
2016-10-07T02:28:08.259Z,97.41
2016-10-07T02:29:07.947Z,97.27
2016-10-07T02:30:07.555Z,97.51
2016-10-07T02:31:08.288Z,97.01
2016-10-07T02:32:08.077Z,97.29
2016-10-07T02:33:07.588Z,97.00
2016-10-07T02:34:08.216Z,96.58
2016-10-07T02:35:07.834Z,96.86
2016-10-07T02:36:07.477Z,97.57
2016-10-07T02:37:08.129Z,97.61
2016-10-07T02:38:07.873Z,97.51
2016-10-07T02:39:07.497Z,97.00
2016-10-07T02:40:13.681Z,97.07
2016-10-07T02:41:07.792Z,96.84
2016-10-07T02:42:07.638Z,96.38
2016-10-07T02:43:08.060Z,97.11
2016-10-07T02:44:07.671Z,97.13
2016-10-07T02:45:08.331Z,96.93
2016-10-07T02:46:07.993Z,97.27
2016-10-07T02:47:07.630Z,97.24
2016-10-07T02:48:08.327Z,96.82
2016-10-07T02:49:07.961Z,96.63
2016-10-07T02:50:07.959Z,96.98
2016-10-07T02:51:08.218Z,97.30
2016-10-07T02:52:08.086Z,97.07
2016-10-07T02:53:07.512Z,97.59
2016-10-07T02:54:08.132Z,97.14
2016-10-07T02:55:07.781Z,96.84
2016-10-07T02:56:07.423Z,97.05
2016-10-07T02:57:08.037Z,97.41
2016-10-07T02:58:07.791Z,97.11
2016-10-07T02:59:08.317Z,97.40
2016-10-07T03:00:07.998Z,97.19
2016-10-07T03:01:07.681Z,96.86
2016-10-07T03:02:08.308Z,97.27
2016-10-07T03:03:08.022Z,96.78
2016-10-07T03:04:07.659Z,96.64
2016-10-07T03:05:08.306Z,97.28
2016-10-07T03:06:07.887Z,96.88
2016-10-07T03:07:07.517Z,97.10
2016-10-07T03:08:08.260Z,96.98
2016-10-07T03:09:07.880Z,97.17
2016-10-07T03:10:07.530Z,97.30
2016-10-07T03:11:08.203Z,97.00
2016-10-07T03:12:07.824Z,96.53
2016-10-07T03:13:07.487Z,96.71
2016-10-07T03:14:08.058Z,97.02
2016-10-07T03:15:07.714Z,96.75
2016-10-07T03:16:08.422Z,96.79
2016-10-07T03:17:08.051Z,96.95
2016-10-07T03:18:07.811Z,97.02
2016-10-07T03:19:07.387Z,96.55
2016-10-07T03:20:08.043Z,97.10
2016-10-07T03:21:07.725Z,97.09
2016-10-07T03:22:08.448Z,96.99
2016-10-07T03:23:08.052Z,96.69
2016-10-07T03:24:07.648Z,97.27
2016-10-07T03:25:08.298Z,97.55
2016-10-07T03:26:07.978Z,97.59
2016-10-07T03:27:07.609Z,96.92
2016-10-07T03:28:08.280Z,97.26
2016-10-07T03:29:07.917Z,97.28
2016-10-07T03:30:07.591Z,97.84
2016-10-07T03:31:08.294Z,98.15
2016-10-07T03:32:07.869Z,97.56
2016-10-07T03:33:07.547Z,97.35
2016-10-07T03:34:08.161Z,97.21
2016-10-07T03:35:07.814Z,97.13
2016-10-07T03:36:07.485Z,97.23
2016-10-07T03:37:08.131Z,98.33
2016-10-07T03:38:07.792Z,99.20
2016-10-07T03:39:07.385Z,98.85
2016-10-07T03:40:08.046Z,98.14
2016-10-07T03:41:07.690Z,98.50
2016-10-07T03:42:08.320Z,98.58
2016-10-07T03:43:07.996Z,98.33
2016-10-07T03:44:07.654Z,98.44
2016-10-07T03:45:08.334Z,98.51
2016-10-07T03:46:08.021Z,98.34
2016-10-07T03:47:07.686Z,98.40
2016-10-07T03:48:08.314Z,98.42
2016-10-07T03:49:07.934Z,98.57
2016-10-07T03:50:07.675Z,98.42
2016-10-07T03:51:08.263Z,98.45
2016-10-07T03:52:08.141Z,98.23
2016-10-07T03:53:07.560Z,97.64
2016-10-07T03:54:08.184Z,97.37
2016-10-07T03:55:07.876Z,97.11
2016-10-07T03:56:07.470Z,97.07
2016-10-07T03:57:08.100Z,97.87
2016-10-07T03:58:07.799Z,97.71
2016-10-07T03:59:07.360Z,98.41
2016-10-07T04:00:08.026Z,97.93
2016-10-07T04:01:07.716Z,98.10
2016-10-07T04:02:07.456Z,98.41
2016-10-07T04:03:08.046Z,98.42
2016-10-07T04:04:07.641Z,97.97
2016-10-07T04:05:08.276Z,97.54
2016-10-07T04:06:07.927Z,97.87
2016-10-07T04:07:07.642Z,97.81
2016-10-07T04:08:08.261Z,97.23
2016-10-07T04:09:07.886Z,97.27
2016-10-07T04:10:07.547Z,97.43
2016-10-07T04:11:08.211Z,97.67
2016-10-07T04:12:07.865Z,97.56
2016-10-07T04:13:07.609Z,98.04
2016-10-07T04:14:07.604Z,98.54
2016-10-07T04:15:08.293Z,98.63
2016-10-07T04:16:07.922Z,98.30
2016-10-07T04:17:07.722Z,98.40
2016-10-07T04:18:07.544Z,98.32
2016-10-07T04:19:08.066Z,98.01
2016-10-07T04:20:13.282Z,97.64
2016-10-07T04:21:08.392Z,97.00
2016-10-07T04:22:08.045Z,97.43
2016-10-07T04:23:07.713Z,97.21
2016-10-07T04:24:08.316Z,97.59
2016-10-07T04:25:10.574Z,97.68
2016-10-07T04:26:08.377Z,97.40
2016-10-07T04:27:08.036Z,97.24
2016-10-07T04:28:07.793Z,96.91
2016-10-07T04:29:07.688Z,96.84
2016-10-07T04:30:08.348Z,97.11
2016-10-07T04:31:08.013Z,97.11
2016-10-07T04:32:08.306Z,97.13
2016-10-07T04:33:08.439Z,97.44
2016-10-07T04:34:07.898Z,98.24
2016-10-07T04:35:07.583Z,98.56
2016-10-07T04:36:08.257Z,98.18
2016-10-07T04:37:07.879Z,98.36
2016-10-07T04:38:07.527Z,97.93
2016-10-07T04:39:08.262Z,97.77
2016-10-07T04:40:07.837Z,98.00
2016-10-07T04:41:07.509Z,97.97
2016-10-07T04:42:08.924Z,98.08
2016-10-07T04:43:07.777Z,97.90
2016-10-07T04:44:07.485Z,98.05
2016-10-07T04:45:08.082Z,98.13
2016-10-07T04:46:07.726Z,98.05
2016-10-07T04:47:07.558Z,98.02
2016-10-07T04:48:08.060Z,98.27
2016-10-07T04:49:07.719Z,98.70
2016-10-07T04:50:08.329Z,98.78
2016-10-07T04:51:07.968Z,98.76
2016-10-07T04:52:07.665Z,98.66
2016-10-07T04:53:08.259Z,99.09
2016-10-07T04:54:07.925Z,98.83
2016-10-07T04:55:07.545Z,99.01
2016-10-07T04:56:08.266Z,99.05
2016-10-07T04:57:08.796Z,99.36
2016-10-07T04:58:07.543Z,99.13
2016-10-07T04:59:07.818Z,98.76
2016-10-07T05:00:07.570Z,98.86
2016-10-07T05:01:08.056Z,98.95
2016-10-07T05:02:07.925Z,99.26
2016-10-07T05:03:08.377Z,99.05
2016-10-07T05:04:08.070Z,99.38
2016-10-07T05:05:07.647Z,99.03
2016-10-07T05:06:08.334Z,99.36
2016-10-07T05:07:07.958Z,99.59
2016-10-07T05:08:07.619Z,100.00
2016-10-07T05:09:08.305Z,100.00
2016-10-07T05:10:07.917Z,99.97
2016-10-07T05:11:07.577Z,99.85
2016-10-07T05:12:08.218Z,99.43
2016-10-07T05:13:07.917Z,99.11
2016-10-07T05:14:08.065Z,98.94
2016-10-07T05:15:07.651Z,98.70
2016-10-07T05:16:08.288Z,98.47
2016-10-07T05:17:08.067Z,98.72
2016-10-07T05:18:07.927Z,98.47
2016-10-07T05:19:07.458Z,98.37
2016-10-07T05:20:08.084Z,98.58
2016-10-07T05:21:07.739Z,98.80
2016-10-07T05:22:08.305Z,99.12
2016-10-07T05:23:07.959Z,99.42
2016-10-07T05:24:07.647Z,99.50
2016-10-07T05:25:08.240Z,99.30
2016-10-07T05:26:07.908Z,99.11
2016-10-07T05:27:07.591Z,99.47
2016-10-07T05:28:10.386Z,100.00
2016-10-07T05:29:08.916Z,100.00
2016-10-07T05:30:07.571Z,100.00
2016-10-07T05:31:08.264Z,99.91
2016-10-07T05:32:08.005Z,99.61
2016-10-07T05:33:07.587Z,99.37
2016-10-07T05:34:08.276Z,99.45
2016-10-07T05:35:07.905Z,99.17
2016-10-07T05:36:07.619Z,99.65
2016-10-07T05:37:08.227Z,99.92
2016-10-07T05:38:07.859Z,99.54
2016-10-07T05:39:07.559Z,99.33
2016-10-07T05:40:08.175Z,99.43
2016-10-07T05:41:07.817Z,99.40
2016-10-07T05:42:07.443Z,98.78
2016-10-07T05:43:08.077Z,99.13
2016-10-07T05:44:07.806Z,99.13
2016-10-07T05:45:07.404Z,99.65
2016-10-07T05:46:08.030Z,99.79
2016-10-07T05:47:07.759Z,100.00
2016-10-07T05:48:08.358Z,100.00
2016-10-07T05:49:08.044Z,100.00
2016-10-07T05:50:07.630Z,99.46
2016-10-07T05:51:08.267Z,99.61
2016-10-07T05:52:07.980Z,99.71
2016-10-07T05:53:07.607Z,99.58
2016-10-07T05:54:08.329Z,99.73
2016-10-07T05:55:08.027Z,99.77
2016-10-07T05:56:07.618Z,99.82
2016-10-07T05:57:08.373Z,99.90
2016-10-07T05:58:07.976Z,99.77
2016-10-07T05:59:07.905Z,100.00
2016-10-07T06:00:07.486Z,100.00
2016-10-07T06:01:08.146Z,100.00
2016-10-07T06:02:07.833Z,100.00
2016-10-07T06:03:07.460Z,100.00
2016-10-07T06:04:08.148Z,100.00
2016-10-07T06:05:07.764Z,100.00
2016-10-07T06:06:08.064Z,99.82
2016-10-07T06:07:08.079Z,99.76
2016-10-07T06:08:07.777Z,99.71
2016-10-07T06:09:08.433Z,100.00
2016-10-07T06:10:07.975Z,100.00
2016-10-07T06:11:07.649Z,100.00
2016-10-07T06:12:08.292Z,100.00
2016-10-07T06:13:08.140Z,99.65
2016-10-07T06:14:07.545Z,99.73
2016-10-07T06:15:08.151Z,100.00
2016-10-07T06:16:07.834Z,100.00
2016-10-07T06:17:07.629Z,99.49
2016-10-07T06:18:08.317Z,100.00
2016-10-07T06:19:08.008Z,100.00
2016-10-07T06:20:07.633Z,100.00
2016-10-07T06:21:08.231Z,100.00
2016-10-07T06:22:07.902Z,100.00
2016-10-07T06:23:07.556Z,100.00
2016-10-07T06:24:08.285Z,100.00
2016-10-07T06:25:07.908Z,100.00
2016-10-07T06:26:07.516Z,100.00
2016-10-07T06:27:08.259Z,99.63
2016-10-07T06:28:07.803Z,99.96
2016-10-07T06:29:07.509Z,100.00
2016-10-07T06:30:08.102Z,100.00
2016-10-07T06:31:07.815Z,100.00
2016-10-07T06:32:07.516Z,100.00
2016-10-07T06:33:08.161Z,100.00
2016-10-07T06:34:07.844Z,100.00
2016-10-07T06:35:07.448Z,100.00
2016-10-07T06:36:08.104Z,100.00
2016-10-07T06:37:07.676Z,100.00
2016-10-07T06:38:08.378Z,100.00
2016-10-07T06:39:08.064Z,100.00
2016-10-07T06:40:07.812Z,100.00
2016-10-07T06:41:08.320Z,100.00
2016-10-07T06:42:07.983Z,100.00
2016-10-07T06:43:07.609Z,100.00
2016-10-07T06:44:08.325Z,100.00
2016-10-07T06:45:07.931Z,100.00
2016-10-07T06:46:07.686Z,100.00
2016-10-07T06:47:08.266Z,99.94
2016-10-07T06:48:07.918Z,99.77
2016-10-07T06:49:07.589Z,99.93
2016-10-07T06:50:08.205Z,100.00
2016-10-07T06:51:07.864Z,100.00
2016-10-07T06:52:07.507Z,99.97
2016-10-07T06:53:08.212Z,99.85
2016-10-07T06:54:07.859Z,100.00
2016-10-07T06:55:07.481Z,100.00
2016-10-07T06:56:08.129Z,100.00
2016-10-07T06:57:07.808Z,100.00
2016-10-07T06:58:07.441Z,100.00
2016-10-07T06:59:07.725Z,100.00
2016-10-07T07:00:08.284Z,100.00
2016-10-07T07:01:07.946Z,100.00
2016-10-07T07:02:13.227Z,100.00
2016-10-07T07:03:08.235Z,100.00
2016-10-07T07:04:07.933Z,100.00
2016-10-07T07:05:07.462Z,100.00
2016-10-07T07:06:08.200Z,100.00
2016-10-07T07:07:07.837Z,100.00
2016-10-07T07:08:07.507Z,100.00
2016-10-07T07:09:08.292Z,100.00
2016-10-07T07:10:07.845Z,100.00
2016-10-07T07:11:07.487Z,100.00
2016-10-07T07:12:08.137Z,100.00
2016-10-07T07:13:07.777Z,100.00
2016-10-07T07:14:07.496Z,100.00
2016-10-07T07:15:08.085Z,100.00
2016-10-07T07:16:07.705Z,100.00
2016-10-07T07:17:07.528Z,100.00
2016-10-07T07:18:08.193Z,100.00
2016-10-07T07:19:07.922Z,100.00
2016-10-07T07:20:07.506Z,100.00
2016-10-07T07:21:08.151Z,100.00
2016-10-07T07:22:07.799Z,100.00
2016-10-07T07:23:07.476Z,100.00
2016-10-07T07:24:08.140Z,100.00
2016-10-07T07:25:07.757Z,100.00
2016-10-07T07:26:07.389Z,100.00
2016-10-07T07:27:08.038Z,100.00
2016-10-07T07:28:07.721Z,100.00
2016-10-07T07:29:07.937Z,100.00
2016-10-07T07:30:07.546Z,100.00
2016-10-07T07:31:08.225Z,100.00
2016-10-07T07:32:07.942Z,100.00
2016-10-07T07:33:07.546Z,100.00
2016-10-07T07:34:08.237Z,100.00
2016-10-07T07:35:07.855Z,100.00
2016-10-07T07:36:07.511Z,99.97
2016-10-07T07:37:08.169Z,99.34
2016-10-07T07:38:07.812Z,98.90
2016-10-07T07:39:07.513Z,99.35
2016-10-07T07:40:08.120Z,99.72
2016-10-07T07:41:07.755Z,99.74
2016-10-07T07:42:07.449Z,100.00
2016-10-07T07:43:08.102Z,100.00
2016-10-07T07:44:08.206Z,99.24
2016-10-07T07:45:07.807Z,99.35
2016-10-07T07:46:07.478Z,99.61
2016-10-07T07:47:08.169Z,99.27
2016-10-07T07:48:07.879Z,99.14
2016-10-07T07:49:07.582Z,99.73
2016-10-07T07:50:08.168Z,99.03
2016-10-07T07:51:07.812Z,99.34
2016-10-07T07:52:07.453Z,99.15
2016-10-07T07:53:08.078Z,98.87
2016-10-07T07:54:07.835Z,98.65
2016-10-07T07:55:07.428Z,99.05
2016-10-07T07:56:08.090Z,98.95
2016-10-07T07:57:07.827Z,99.14
2016-10-07T07:58:07.376Z,98.99
2016-10-07T07:59:08.172Z,99.45
2016-10-07T08:00:07.768Z,99.81
2016-10-07T08:01:07.427Z,98.65
2016-10-07T08:02:08.135Z,98.75
2016-10-07T08:03:07.742Z,97.95
2016-10-07T08:04:07.447Z,99.01
2016-10-07T08:05:08.018Z,98.94
2016-10-07T08:06:07.701Z,98.78
2016-10-07T08:07:08.361Z,96.97
2016-10-07T08:08:08.025Z,97.57
2016-10-07T08:09:07.708Z,97.57
2016-10-07T08:10:08.313Z,97.61
2016-10-07T08:11:08.007Z,98.69
2016-10-07T08:12:07.640Z,98.01
2016-10-07T08:13:08.302Z,97.84
2016-10-07T08:14:08.014Z,97.82
2016-10-07T08:15:07.610Z,97.50
2016-10-07T08:16:08.353Z,97.51
2016-10-07T08:17:08.077Z,98.15
2016-10-07T08:18:07.743Z,98.17
2016-10-07T08:19:07.435Z,97.99
2016-10-07T08:20:08.034Z,98.08
2016-10-07T08:21:07.685Z,98.25
2016-10-07T08:22:08.433Z,98.29
2016-10-07T08:23:07.998Z,97.84
2016-10-07T08:24:07.720Z,97.48
2016-10-07T08:25:08.304Z,97.58
2016-10-07T08:26:07.966Z,97.69
2016-10-07T08:27:07.608Z,97.65
2016-10-07T08:28:08.239Z,97.71
2016-10-07T08:29:07.981Z,97.91
2016-10-07T08:30:07.627Z,98.42
2016-10-07T08:31:08.199Z,98.49
2016-10-07T08:32:07.917Z,98.22
2016-10-07T08:33:07.494Z,97.93
2016-10-07T08:34:08.220Z,97.90
2016-10-07T08:35:07.835Z,97.69
2016-10-07T08:36:07.513Z,97.57
2016-10-07T08:37:08.158Z,97.72
2016-10-07T08:38:07.910Z,97.94
2016-10-07T08:39:07.509Z,98.36
2016-10-07T08:40:08.125Z,97.79
2016-10-07T08:41:07.775Z,97.94
2016-10-07T08:42:07.401Z,97.75
2016-10-07T08:43:08.025Z,97.17
2016-10-07T08:44:07.751Z,97.16
2016-10-07T08:45:08.370Z,98.09
2016-10-07T08:46:08.029Z,97.68
2016-10-07T08:47:07.678Z,97.41
2016-10-07T08:48:08.259Z,97.36
2016-10-07T08:49:07.973Z,97.89
2016-10-07T08:50:07.610Z,97.28
2016-10-07T08:51:08.198Z,96.87
2016-10-07T08:52:07.838Z,96.93
2016-10-07T08:53:07.543Z,95.91
2016-10-07T08:54:08.209Z,97.47
2016-10-07T08:55:07.815Z,97.58
2016-10-07T08:56:07.428Z,96.74
2016-10-07T08:57:08.118Z,96.44
2016-10-07T08:58:07.758Z,97.79
2016-10-07T08:59:07.464Z,97.56
2016-10-07T09:00:08.063Z,97.66
2016-10-07T09:01:07.679Z,97.19
2016-10-07T09:02:08.417Z,97.30
2016-10-07T09:03:08.014Z,97.74
2016-10-07T09:04:07.743Z,97.75
2016-10-07T09:05:08.333Z,98.29
2016-10-07T09:06:08.003Z,97.63
2016-10-07T09:07:07.633Z,98.45
2016-10-07T09:08:08.371Z,97.84
2016-10-07T09:09:07.996Z,97.73
2016-10-07T09:10:07.603Z,98.94
2016-10-07T09:11:08.284Z,96.77
2016-10-07T09:12:07.923Z,96.48
2016-10-07T09:13:07.596Z,96.34
2016-10-07T09:14:08.370Z,97.66
2016-10-07T09:15:07.964Z,97.97
2016-10-07T09:16:07.644Z,97.48
2016-10-07T09:17:08.402Z,96.22
2016-10-07T09:18:08.063Z,96.50
2016-10-07T09:19:07.775Z,97.65
2016-10-07T09:20:07.403Z,97.06
2016-10-07T09:21:08.063Z,97.66
2016-10-07T09:22:07.709Z,97.54
2016-10-07T09:23:07.387Z,95.55
2016-10-07T09:24:08.105Z,95.51
2016-10-07T09:25:07.702Z,96.06
2016-10-07T09:26:08.423Z,95.23
2016-10-07T09:27:08.036Z,95.44
2016-10-07T09:28:07.704Z,96.11
2016-10-07T09:29:07.975Z,95.82
2016-10-07T09:30:07.573Z,95.07
2016-10-07T09:31:08.287Z,95.09
2016-10-07T09:32:07.968Z,95.86
2016-10-07T09:33:07.593Z,96.22
2016-10-07T09:34:08.334Z,97.10
2016-10-07T09:35:07.912Z,97.51
2016-10-07T09:36:07.576Z,96.31
2016-10-07T09:37:08.246Z,95.91
2016-10-07T09:38:07.876Z,95.48
2016-10-07T09:39:07.585Z,94.50
2016-10-07T09:40:08.335Z,94.51
2016-10-07T09:41:07.874Z,95.66
2016-10-07T09:42:07.563Z,96.19
2016-10-07T09:43:08.216Z,94.75
2016-10-07T09:44:07.899Z,95.35
2016-10-07T09:45:07.505Z,96.62
2016-10-07T09:46:08.217Z,96.48
2016-10-07T09:47:07.911Z,95.85
2016-10-07T09:48:07.512Z,96.68
2016-10-07T09:49:08.228Z,97.54
2016-10-07T09:50:07.853Z,98.17
2016-10-07T09:51:07.503Z,98.15
2016-10-07T09:52:08.219Z,97.80
2016-10-07T09:53:07.866Z,96.82
2016-10-07T09:54:07.544Z,96.27
2016-10-07T09:55:08.155Z,96.91
2016-10-07T09:56:07.798Z,94.63
2016-10-07T09:57:07.490Z,93.69
2016-10-07T09:58:08.120Z,91.96
2016-10-07T09:59:08.218Z,92.24
2016-10-07T10:00:07.822Z,93.34
2016-10-07T10:01:07.482Z,94.58
2016-10-07T10:02:08.213Z,95.06
2016-10-07T10:03:07.774Z,95.18
2016-10-07T10:04:07.533Z,95.73
2016-10-07T10:05:08.121Z,96.56
2016-10-07T10:06:07.757Z,96.28
2016-10-07T10:07:07.403Z,95.31
2016-10-07T10:08:08.048Z,95.58
2016-10-07T10:09:07.793Z,95.54
2016-10-07T10:10:07.401Z,96.70
2016-10-07T10:11:08.116Z,96.33
2016-10-07T10:12:07.763Z,96.39
2016-10-07T10:13:07.407Z,96.65
2016-10-07T10:14:08.186Z,96.90
2016-10-07T10:15:07.780Z,95.69
2016-10-07T10:16:07.417Z,92.95
2016-10-07T10:17:08.187Z,93.38
2016-10-07T10:18:07.852Z,94.23
2016-10-07T10:19:07.524Z,95.71
2016-10-07T10:20:08.162Z,95.33
2016-10-07T10:21:07.832Z,94.91
2016-10-07T10:22:07.498Z,94.10
2016-10-07T10:23:08.135Z,95.27
2016-10-07T10:24:07.821Z,95.53
2016-10-07T10:25:07.440Z,95.71
2016-10-07T10:26:08.094Z,95.92
2016-10-07T10:27:07.771Z,95.54
2016-10-07T10:28:07.431Z,95.09
2016-10-07T10:29:08.110Z,95.19
2016-10-07T10:30:07.703Z,96.21
2016-10-07T10:31:08.340Z,96.20
2016-10-07T10:32:08.013Z,93.95
2016-10-07T10:33:07.647Z,93.07
2016-10-07T10:34:08.352Z,94.44
2016-10-07T10:35:07.982Z,95.16
2016-10-07T10:36:07.624Z,93.98
2016-10-07T10:37:08.302Z,93.59
2016-10-07T10:38:07.971Z,94.63
2016-10-07T10:39:07.632Z,95.01
2016-10-07T10:40:08.253Z,94.25
2016-10-07T10:41:07.904Z,94.34
2016-10-07T10:42:07.587Z,92.46
2016-10-07T10:43:08.240Z,91.62
2016-10-07T10:44:07.981Z,91.68
2016-10-07T10:45:07.620Z,91.57
2016-10-07T10:46:08.289Z,93.50
2016-10-07T10:47:07.930Z,93.72
2016-10-07T10:48:07.532Z,93.51
2016-10-07T10:49:08.244Z,94.41
2016-10-07T10:50:07.842Z,95.43
2016-10-07T10:51:07.446Z,95.17
2016-10-07T10:52:08.121Z,93.35
2016-10-07T10:53:07.783Z,92.97
2016-10-07T10:54:07.466Z,93.28
2016-10-07T10:55:08.066Z,92.96
2016-10-07T10:56:07.701Z,93.96
2016-10-07T10:57:08.381Z,93.76
2016-10-07T10:58:08.210Z,94.08
2016-10-07T10:59:07.740Z,93.96
2016-10-07T11:00:08.328Z,94.36
2016-10-07T11:01:07.937Z,94.88
2016-10-07T11:02:07.643Z,93.91
2016-10-07T11:03:08.239Z,94.09
2016-10-07T11:04:07.910Z,94.97
2016-10-07T11:05:07.505Z,95.17
2016-10-07T11:06:08.195Z,94.26
2016-10-07T11:07:07.862Z,94.75
2016-10-07T11:08:07.518Z,94.54
2016-10-07T11:09:08.250Z,94.65
2016-10-07T11:10:07.822Z,94.11
2016-10-07T11:11:07.481Z,95.10
2016-10-07T11:12:08.560Z,95.16
2016-10-07T11:13:07.783Z,95.35
2016-10-07T11:14:07.555Z,96.13
2016-10-07T11:15:08.167Z,95.99
2016-10-07T11:16:07.838Z,95.62
2016-10-07T11:17:07.562Z,95.53
2016-10-07T11:18:08.286Z,95.38
2016-10-07T11:19:07.979Z,95.81
2016-10-07T11:20:07.572Z,96.42
2016-10-07T11:21:08.213Z,96.33
2016-10-07T11:22:07.841Z,96.47
2016-10-07T11:23:07.502Z,96.41
2016-10-07T11:24:08.214Z,96.50
2016-10-07T11:25:07.851Z,97.37
2016-10-07T11:26:07.509Z,97.13
2016-10-07T11:27:08.142Z,97.18
2016-10-07T11:28:07.799Z,97.11
2016-10-07T11:29:07.506Z,97.76
2016-10-07T11:30:08.110Z,98.06
2016-10-07T11:31:07.813Z,98.20
2016-10-07T11:32:07.467Z,97.29
2016-10-07T11:33:08.061Z,96.71
2016-10-07T11:34:07.772Z,96.97
2016-10-07T11:35:07.385Z,95.60
2016-10-07T11:36:08.011Z,96.06
2016-10-07T11:37:07.689Z,96.00
2016-10-07T11:38:08.330Z,96.72
2016-10-07T11:39:13.608Z,97.43
2016-10-07T11:40:07.698Z,97.24
2016-10-07T11:41:08.373Z,97.45
2016-10-07T11:42:07.946Z,96.16
2016-10-07T11:43:07.689Z,96.04
2016-10-07T11:44:07.731Z,96.87
2016-10-07T11:45:08.360Z,97.99
2016-10-07T11:46:08.009Z,97.85
2016-10-07T11:47:07.706Z,97.46
2016-10-07T11:48:08.312Z,97.31
2016-10-07T11:49:07.979Z,97.51
2016-10-07T11:50:07.609Z,98.30
2016-10-07T11:51:08.241Z,96.66
2016-10-07T11:52:07.920Z,97.42
2016-10-07T11:53:07.592Z,97.22
2016-10-07T11:54:08.280Z,97.47
2016-10-07T11:55:07.927Z,97.83
2016-10-07T11:56:07.618Z,98.07
2016-10-07T11:57:08.217Z,98.30
2016-10-07T11:58:07.868Z,97.70
2016-10-07T11:59:07.985Z,97.17
2016-10-07T12:00:07.599Z,96.83
2016-10-07T12:01:08.238Z,94.67
2016-10-07T12:02:07.966Z,96.46
2016-10-07T12:03:07.591Z,96.10
2016-10-07T12:04:08.332Z,95.61
2016-10-07T12:05:07.865Z,95.92
2016-10-07T12:06:07.589Z,94.69
2016-10-07T12:07:08.236Z,94.53
2016-10-07T12:08:07.934Z,94.52
2016-10-07T12:09:07.585Z,95.15
2016-10-07T12:10:08.226Z,95.17
2016-10-07T12:11:07.881Z,95.24
2016-10-07T12:12:07.530Z,96.15
2016-10-07T12:13:08.186Z,94.90
2016-10-07T12:14:07.899Z,94.90
2016-10-07T12:15:07.523Z,96.18
2016-10-07T12:16:08.141Z,95.56
2016-10-07T12:17:07.916Z,95.41
2016-10-07T12:18:07.619Z,92.02
2016-10-07T12:19:08.339Z,92.89
2016-10-07T12:20:08.083Z,92.54
2016-10-07T12:21:07.624Z,91.11
2016-10-07T12:22:08.284Z,92.33
2016-10-07T12:23:07.886Z,93.91
2016-10-07T12:24:07.589Z,94.92
2016-10-07T12:25:08.174Z,95.32
2016-10-07T12:26:07.859Z,94.29
2016-10-07T12:27:07.539Z,92.66
2016-10-07T12:28:08.159Z,92.85
2016-10-07T12:29:07.849Z,90.66
2016-10-07T12:30:07.482Z,91.52
2016-10-07T12:31:08.151Z,92.07
2016-10-07T12:32:07.897Z,92.74
2016-10-07T12:33:07.449Z,92.76
2016-10-07T12:34:08.174Z,91.54
2016-10-07T12:35:07.774Z,92.44
2016-10-07T12:36:07.431Z,91.70
2016-10-07T12:37:08.054Z,92.02
2016-10-07T12:38:07.711Z,93.25
2016-10-07T12:39:07.451Z,92.47
2016-10-07T12:40:08.056Z,93.23
2016-10-07T12:41:07.705Z,90.77
2016-10-07T12:42:08.337Z,90.67
2016-10-07T12:43:08.302Z,92.67
2016-10-07T12:44:08.372Z,92.61
2016-10-07T12:45:07.999Z,92.79
2016-10-07T12:46:07.639Z,92.52
2016-10-07T12:47:08.329Z,92.38
2016-10-07T12:48:07.968Z,91.77
2016-10-07T12:49:07.642Z,90.03